createdAt,value
2022-11-27T00:01:29.358Z,87.55
2022-11-27T00:03:56.879Z,87.96
2022-11-27T00:06:28.110Z,88.45
2022-11-27T00:09:00.397Z,87.72
2022-11-27T00:11:30.147Z,88.12
2022-11-27T00:13:57.898Z,88.25
2022-11-27T00:16:26.204Z,88.72
2022-11-27T00:18:53.508Z,88.70
2022-11-27T00:21:24.211Z,88.79
2022-11-27T00:23:53.416Z,88.42
2022-11-27T00:26:21.797Z,88.83
2022-11-27T00:28:49.554Z,88.72
2022-11-27T00:31:29.652Z,88.81
2022-11-27T00:34:01.951Z,88.55
2022-11-27T00:36:31.028Z,88.55
2022-11-27T00:38:58.653Z,87.70
2022-11-27T00:41:28.034Z,88.19
2022-11-27T00:43:55.534Z,87.65
2022-11-27T00:46:29.319Z,88.03
2022-11-27T00:49:02.206Z,88.12
2022-11-27T00:51:30.082Z,88.12
2022-11-27T00:53:57.465Z,88.37
2022-11-27T00:56:31.364Z,88.39
2022-11-27T00:58:59.026Z,88.09
2022-11-27T01:01:30.284Z,88.85
2022-11-27T01:04:00.104Z,88.45
2022-11-27T01:06:29.219Z,88.18
2022-11-27T01:08:57.430Z,88.42
2022-11-27T01:11:31.121Z,87.90
2022-11-27T01:14:01.235Z,87.95
2022-11-27T01:16:32.827Z,87.85
2022-11-27T01:19:02.318Z,87.98
2022-11-27T01:21:32.516Z,88.10
2022-11-27T01:24:00.747Z,88.17
2022-11-27T01:26:28.273Z,87.41
2022-11-27T01:28:57.330Z,87.47
2022-11-27T01:31:27.792Z,87.63
2022-11-27T01:33:58.490Z,87.98
2022-11-27T01:36:26.861Z,87.84
2022-11-27T01:38:54.738Z,87.62
2022-11-27T01:41:27.863Z,88.02
2022-11-27T01:44:01.523Z,87.54
2022-11-27T01:46:38.503Z,87.85
2022-11-27T01:49:07.203Z,88.23
2022-11-27T01:51:37.252Z,87.99
2022-11-27T01:54:04.987Z,87.13
2022-11-27T01:56:32.392Z,87.42
2022-11-27T01:59:00.388Z,87.18
2022-11-27T02:01:27.513Z,87.13
2022-11-27T02:03:59.323Z,86.89
2022-11-27T02:06:27.134Z,86.91
2022-11-27T02:08:56.128Z,87.33
2022-11-27T02:11:26.065Z,86.43
2022-11-27T02:13:53.073Z,86.58
2022-11-27T02:17:02.160Z,86.82
2022-11-27T02:20:07.278Z,86.35
2022-11-27T02:23:19.124Z,86.09
2022-11-27T02:26:01.380Z,85.75
2022-11-27T02:28:51.246Z,85.85
2022-11-27T02:31:40.063Z,85.78
2022-11-27T02:34:29.028Z,85.55
2022-11-27T02:37:07.572Z,85.51
2022-11-27T02:39:59.736Z,85.50
2022-11-27T02:42:31.427Z,85.73
2022-11-27T02:45:10.620Z,85.76
2022-11-27T02:47:40.164Z,86.03
2022-11-27T02:50:14.745Z,85.91
2022-11-27T02:52:43.653Z,85.03
2022-11-27T02:55:16.069Z,85.67
2022-11-27T02:57:45.419Z,85.62
2022-11-27T03:00:13.678Z,85.72
2022-11-27T03:02:55.388Z,85.59
2022-11-27T03:05:26.321Z,85.60
2022-11-27T03:08:00.391Z,84.86
2022-11-27T03:10:34.336Z,85.19
2022-11-27T03:13:03.382Z,85.23
2022-11-27T03:16:09.447Z,85.66
2022-11-27T03:18:51.127Z,85.41
2022-11-27T03:21:41.615Z,85.41
2022-11-27T03:24:10.174Z,85.02
2022-11-27T03:26:38.501Z,85.28
2022-11-27T03:29:35.775Z,85.60
2022-11-27T03:32:04.482Z,85.73
2022-11-27T03:34:32.326Z,85.60
2022-11-27T03:37:00.099Z,85.39
2022-11-27T03:39:28.483Z,86.05
2022-11-27T03:42:13.189Z,86.48
2022-11-27T03:44:48.713Z,85.94
2022-11-27T03:47:37.509Z,85.68
2022-11-27T03:50:18.341Z,85.99
2022-11-27T03:53:13.276Z,85.66
2022-11-27T03:56:27.890Z,86.24
2022-11-27T03:59:02.268Z,86.23
2022-11-27T04:01:30.503Z,86.11
2022-11-27T04:03:57.814Z,85.80
2022-11-27T04:06:25.192Z,86.23
2022-11-27T04:08:52.349Z,85.94
2022-11-27T04:11:19.640Z,86.50
2022-11-27T04:13:46.745Z,86.47
2022-11-27T04:16:13.931Z,86.61
2022-11-27T04:18:41.070Z,86.64
2022-11-27T04:21:08.404Z,86.46
2022-11-27T04:23:37.806Z,86.71
2022-11-27T04:26:06.896Z,86.09
2022-11-27T04:28:34.271Z,86.55
2022-11-27T04:31:01.785Z,85.87
2022-11-27T04:33:29.265Z,86.18
2022-11-27T04:35:56.389Z,86.21
2022-11-27T04:38:23.528Z,86.30
2022-11-27T04:40:53.240Z,86.88
2022-11-27T04:43:21.144Z,86.32
2022-11-27T04:45:48.517Z,86.43
2022-11-27T04:48:15.677Z,86.14
2022-11-27T04:50:42.772Z,86.08
2022-11-27T04:53:12.388Z,85.99
2022-11-27T04:55:39.475Z,86.10
2022-11-27T04:58:06.744Z,86.00
2022-11-27T05:00:35.383Z,85.88
2022-11-27T05:03:02.570Z,85.41
2022-11-27T05:05:29.694Z,85.79
2022-11-27T05:07:57.012Z,85.39
2022-11-27T05:10:24.396Z,85.29
2022-11-27T05:12:51.795Z,85.15
2022-11-27T05:15:19.077Z,85.18
2022-11-27T05:17:46.173Z,85.00
2022-11-27T05:20:13.468Z,85.36
2022-11-27T05:22:40.536Z,84.48
2022-11-27T05:25:08.810Z,84.88
2022-11-27T05:27:36.089Z,84.74
2022-11-27T05:30:03.294Z,84.50
2022-11-27T05:32:31.766Z,84.92
2022-11-27T05:34:59.064Z,85.40
2022-11-27T05:37:27.838Z,84.88
2022-11-27T05:39:55.380Z,85.10
2022-11-27T05:42:22.684Z,84.55
2022-11-27T05:44:53.896Z,84.24
2022-11-27T05:47:24.133Z,84.97
2022-11-27T05:49:51.891Z,84.88
2022-11-27T05:52:19.106Z,84.97
2022-11-27T05:54:46.279Z,85.09
2022-11-27T05:57:13.763Z,85.09
2022-11-27T05:59:40.976Z,85.26
2022-11-27T06:02:08.406Z,84.85
2022-11-27T06:04:35.753Z,84.70
2022-11-27T06:07:03.722Z,84.56
2022-11-27T06:09:30.958Z,84.88
2022-11-27T06:11:58.738Z,84.90
2022-11-27T06:14:26.092Z,84.16
2022-11-27T06:16:53.420Z,83.43
2022-11-27T06:19:20.701Z,83.27
2022-11-27T06:21:48.119Z,82.91
2022-11-27T06:24:15.343Z,83.02
2022-11-27T06:26:43.052Z,83.30
2022-11-27T06:29:10.428Z,82.13
2022-11-27T06:31:38.585Z,82.30
2022-11-27T06:34:07.022Z,82.77
2022-11-27T06:36:37.108Z,82.44
2022-11-27T06:39:06.564Z,82.65
2022-11-27T06:41:34.916Z,82.82
2022-11-27T06:44:02.852Z,84.01
2022-11-27T06:46:30.309Z,83.61
2022-11-27T06:48:58.625Z,84.06
2022-11-27T06:51:29.620Z,83.81
2022-11-27T06:53:57.740Z,83.53
2022-11-27T06:56:28.089Z,84.02
2022-11-27T06:59:00.281Z,83.97
2022-11-27T07:01:30.724Z,84.06
2022-11-27T07:03:59.155Z,83.76
2022-11-27T07:06:27.209Z,83.55
2022-11-27T07:08:55.723Z,83.53
2022-11-27T07:11:26.075Z,83.83
2022-11-27T07:13:55.946Z,83.35
2022-11-27T07:16:23.504Z,83.19
2022-11-27T07:18:54.800Z,83.54
2022-11-27T07:21:22.177Z,83.85
2022-11-27T07:23:52.763Z,83.36
2022-11-27T07:26:22.968Z,84.25
2022-11-27T07:28:51.154Z,84.12
2022-11-27T07:31:32.506Z,83.42
2022-11-27T07:34:00.959Z,82.78
2022-11-27T07:36:30.322Z,82.49
2022-11-27T07:38:58.659Z,82.33
2022-11-27T07:41:30.485Z,82.02
2022-11-27T07:43:57.906Z,81.53
2022-11-27T07:46:26.248Z,81.98
2022-11-27T07:48:53.444Z,81.33
2022-11-27T07:51:22.892Z,81.33
2022-11-27T07:53:52.079Z,81.70
2022-11-27T07:56:20.301Z,80.93
2022-11-27T07:58:47.803Z,80.44
2022-11-27T08:01:19.083Z,80.53
2022-11-27T08:03:46.709Z,81.12
2022-11-27T08:06:20.816Z,80.58
2022-11-27T08:08:48.505Z,81.02
2022-11-27T08:11:25.482Z,80.86
2022-11-27T08:13:57.802Z,80.61
2022-11-27T08:16:25.370Z,81.21
2022-11-27T08:18:52.937Z,80.83
2022-11-27T08:21:22.042Z,81.01
2022-11-27T08:23:49.351Z,81.05
2022-11-27T08:26:16.660Z,81.03
2022-11-27T08:28:44.045Z,81.57
2022-11-27T08:31:14.735Z,81.49
2022-11-27T08:33:41.938Z,80.54
2022-11-27T08:36:14.999Z,80.35
2022-11-27T08:38:46.949Z,80.30
2022-11-27T08:41:14.574Z,80.19
2022-11-27T08:43:41.725Z,79.75
2022-11-27T08:46:10.232Z,80.33
2022-11-27T08:48:39.080Z,79.88
2022-11-27T08:51:08.847Z,80.50
2022-11-27T08:53:37.892Z,80.13
2022-11-27T08:56:10.601Z,80.11
2022-11-27T08:58:37.986Z,79.92
2022-11-27T09:01:11.051Z,79.48
2022-11-27T09:03:38.697Z,79.01
2022-11-27T09:06:17.716Z,79.45
2022-11-27T09:08:45.410Z,79.64
2022-11-27T09:11:14.844Z,79.18
2022-11-27T09:13:43.685Z,78.86
2022-11-27T09:16:14.092Z,78.64
2022-11-27T09:18:45.985Z,77.29
2022-11-27T09:21:14.976Z,76.77
2022-11-27T09:23:42.229Z,76.85
2022-11-27T09:26:14.976Z,76.89
2022-11-27T09:28:43.440Z,77.02
2022-11-27T09:31:13.391Z,77.55
2022-11-27T09:33:41.322Z,77.59
2022-11-27T09:36:12.305Z,78.66
2022-11-27T09:38:39.661Z,78.21
2022-11-27T09:41:36.736Z,78.24
2022-11-27T09:44:14.670Z,77.80
2022-11-27T09:46:44.230Z,77.92
2022-11-27T09:49:19.315Z,77.74
2022-11-27T09:51:55.285Z,77.86
2022-11-27T09:54:54.751Z,78.07
2022-11-27T09:57:37.216Z,76.32
2022-11-27T10:00:17.556Z,75.84
2022-11-27T10:02:45.515Z,77.14
2022-11-27T10:05:23.792Z,78.29
2022-11-27T10:08:28.431Z,78.14
2022-11-27T10:10:58.421Z,77.47
2022-11-27T10:13:52.726Z,79.12
2022-11-27T10:16:47.907Z,78.11
2022-11-27T10:19:18.850Z,78.14
2022-11-27T10:22:20.990Z,78.00
2022-11-27T10:25:13.045Z,77.53
2022-11-27T10:27:43.337Z,77.44
2022-11-27T10:30:17.605Z,77.74
2022-11-27T10:32:56.533Z,78.42
2022-11-27T10:35:27.315Z,79.25
2022-11-27T10:38:05.242Z,78.85
2022-11-27T10:40:48.091Z,79.15
2022-11-27T10:43:15.118Z,79.22
2022-11-27T10:45:56.724Z,78.85
2022-11-27T10:48:24.485Z,79.02
2022-11-27T10:50:51.773Z,78.76
2022-11-27T10:53:34.022Z,78.18
2022-11-27T10:56:21.798Z,78.24
2022-11-27T10:59:01.750Z,77.99
2022-11-27T11:01:41.679Z,78.34
2022-11-27T11:04:35.793Z,79.14
2022-11-27T11:06:58.595Z,78.88
2022-11-27T11:09:29.728Z,77.72
2022-11-27T11:12:17.596Z,79.00
2022-11-27T11:14:56.378Z,78.13
2022-11-27T11:17:38.520Z,78.64
2022-11-27T11:20:35.558Z,79.53
2022-11-27T11:23:02.731Z,79.15
2022-11-27T11:25:31.587Z,79.41
2022-11-27T11:27:58.787Z,80.15
2022-11-27T11:30:30.717Z,80.93
2022-11-27T11:33:04.204Z,81.23
2022-11-27T11:35:37.185Z,81.28
2022-11-27T11:38:14.441Z,80.89
2022-11-27T11:40:44.833Z,80.78
2022-11-27T11:43:30.267Z,81.06
2022-11-27T11:46:16.402Z,80.99
2022-11-27T11:48:58.226Z,81.74
2022-11-27T11:51:58.819Z,81.50
2022-11-27T11:54:38.150Z,81.03
2022-11-27T11:57:29.495Z,81.23
2022-11-27T12:00:11.515Z,81.02
2022-11-27T12:02:49.292Z,81.02
2022-11-27T12:05:32.545Z,80.57
2022-11-27T12:08:38.152Z,80.89
2022-11-27T12:11:12.850Z,80.05
2022-11-27T12:13:40.117Z,79.57
2022-11-27T12:16:35.276Z,79.18
2022-11-27T12:19:40.990Z,78.95
2022-11-27T12:22:52.561Z,78.74
2022-11-27T12:25:25.677Z,78.91
2022-11-27T12:28:11.297Z,78.73
2022-11-27T12:30:50.955Z,79.56
2022-11-27T12:33:27.236Z,79.12
2022-11-27T12:36:09.040Z,79.27
2022-11-27T12:38:40.566Z,79.41
2022-11-27T12:41:50.018Z,79.49
2022-11-27T12:44:58.553Z,79.76
2022-11-27T12:48:04.326Z,79.86
2022-11-27T12:50:44.272Z,79.30
2022-11-27T12:53:31.141Z,78.68
2022-11-27T12:56:08.574Z,78.99
2022-11-27T12:58:46.502Z,79.36
2022-11-27T13:01:40.537Z,78.44
2022-11-27T13:04:26.475Z,77.50
2022-11-27T13:07:10.460Z,78.59
2022-11-27T13:09:47.518Z,78.44
2022-11-27T13:12:24.482Z,78.88
2022-11-27T13:15:00.861Z,78.63
2022-11-27T13:17:37.085Z,78.97
2022-11-27T13:20:07.335Z,78.60
2022-11-27T13:22:36.599Z,79.33
2022-11-27T13:25:05.038Z,79.18
2022-11-27T13:27:36.896Z,79.73
2022-11-27T13:30:08.857Z,79.16
2022-11-27T13:32:49.622Z,79.64
2022-11-27T13:35:37.676Z,80.17
2022-11-27T13:38:26.809Z,79.69
2022-11-27T13:41:16.855Z,78.93
2022-11-27T13:43:47.754Z,78.63
2022-11-27T13:46:44.405Z,78.76
2022-11-27T13:49:25.330Z,79.23
2022-11-27T13:52:23.241Z,79.01
2022-11-27T13:55:01.721Z,78.40
2022-11-27T13:57:31.060Z,78.64
2022-11-27T14:00:12.157Z,78.84
2022-11-27T14:02:48.808Z,79.10
2022-11-27T14:05:19.928Z,79.23
2022-11-27T14:07:50.797Z,79.30
2022-11-27T14:10:30.847Z,78.71
2022-11-27T14:13:10.192Z,79.09
2022-11-27T14:15:38.798Z,79.54
2022-11-27T14:18:05.923Z,79.25
2022-11-27T14:20:37.312Z,78.54
2022-11-27T14:23:12.192Z,79.06
2022-11-27T14:25:41.403Z,78.46
2022-11-27T14:28:27.971Z,79.30
2022-11-27T14:31:00.310Z,78.66
2022-11-27T14:33:47.366Z,78.84
2022-11-27T14:36:26.938Z,79.21
2022-11-27T14:38:54.266Z,78.91
2022-11-27T14:41:23.896Z,79.61
2022-11-27T14:44:06.631Z,79.50
2022-11-27T14:46:37.227Z,79.42
2022-11-27T14:49:04.648Z,79.30
2022-11-27T14:51:35.252Z,79.83
2022-11-27T14:54:05.845Z,79.34
2022-11-27T14:56:40.010Z,79.50
2022-11-27T14:59:13.678Z,78.50
2022-11-27T15:01:41.121Z,78.42
2022-11-27T15:04:36.234Z,77.57
2022-11-27T15:07:27.629Z,77.80
2022-11-27T15:09:57.683Z,77.65
2022-11-27T15:12:37.110Z,77.99
2022-11-27T15:15:20.957Z,77.95
2022-11-27T15:17:54.742Z,77.93
2022-11-27T15:20:36.142Z,77.90
2022-11-27T15:23:05.766Z,77.76
2022-11-27T15:25:43.218Z,78.55
2022-11-27T15:28:37.657Z,78.67
2022-11-27T15:31:28.051Z,78.86
2022-11-27T15:33:56.526Z,79.07
2022-11-27T15:36:23.748Z,79.82
2022-11-27T15:38:51.678Z,78.51
2022-11-27T15:41:20.352Z,78.26
2022-11-27T15:43:47.505Z,77.96
2022-11-27T15:46:16.290Z,78.59
2022-11-27T15:48:43.450Z,78.54
2022-11-27T15:51:11.450Z,78.43
2022-11-27T15:53:38.733Z,78.87
2022-11-27T15:56:07.144Z,78.56
2022-11-27T15:58:34.264Z,78.06
2022-11-27T16:01:06.974Z,78.15
2022-11-27T16:03:34.602Z,77.77
2022-11-27T16:06:06.587Z,76.55
2022-11-27T16:08:33.908Z,77.55
2022-11-27T16:11:03.263Z,76.31
2022-11-27T16:13:30.854Z,75.57
2022-11-27T16:16:06.133Z,75.23
2022-11-27T16:18:34.543Z,75.68
2022-11-27T16:21:04.028Z,75.56
2022-11-27T16:23:31.636Z,76.39
2022-11-27T16:25:59.930Z,76.25
2022-11-27T16:28:34.638Z,75.55
2022-11-27T16:31:07.310Z,75.73
2022-11-27T16:33:35.031Z,75.90
2022-11-27T16:36:07.931Z,75.78
2022-11-27T16:38:35.545Z,75.59
2022-11-27T16:41:10.882Z,74.88
2022-11-27T16:43:45.533Z,74.70
2022-11-27T16:46:20.063Z,74.78
2022-11-27T16:48:49.984Z,75.72
2022-11-27T16:51:20.281Z,74.65
2022-11-27T16:53:49.909Z,74.46
2022-11-27T16:56:19.880Z,74.33
2022-11-27T16:58:48.367Z,73.91
2022-11-27T17:01:22.648Z,73.44
2022-11-27T17:03:51.330Z,73.70
2022-11-27T17:06:26.070Z,73.62
2022-11-27T17:08:58.042Z,74.34
2022-11-27T17:11:29.208Z,74.80
2022-11-27T17:13:58.403Z,75.00
2022-11-27T17:16:26.023Z,75.09
2022-11-27T17:18:53.766Z,75.25
2022-11-27T17:21:30.972Z,75.07
2022-11-27T17:24:04.486Z,74.45
2022-11-27T17:26:42.495Z,74.97
2022-11-27T17:29:11.834Z,74.70
2022-11-27T17:31:39.146Z,75.26
2022-11-27T17:34:08.492Z,74.87
2022-11-27T17:36:37.478Z,73.78
2022-11-27T17:39:06.708Z,74.73
2022-11-27T17:41:34.834Z,74.62
2022-11-27T17:44:08.369Z,73.52
2022-11-27T17:46:37.202Z,73.25
2022-11-27T17:49:07.227Z,73.71
2022-11-27T17:51:36.964Z,73.50
2022-11-27T17:54:06.306Z,73.16
2022-11-27T17:56:35.827Z,73.88
2022-11-27T17:59:03.416Z,74.06
2022-11-27T18:01:31.370Z,73.71
2022-11-27T18:04:01.255Z,72.88
2022-11-27T18:06:32.007Z,73.11
2022-11-27T18:09:02.028Z,73.34
2022-11-27T18:11:32.771Z,73.17
2022-11-27T18:14:00.893Z,73.92
2022-11-27T18:16:37.670Z,74.33
2022-11-27T18:19:08.635Z,74.99
2022-11-27T18:21:37.080Z,74.91
2022-11-27T18:27:11.540Z,74.25
2022-11-27T18:29:42.514Z,74.45
2022-11-27T18:32:11.773Z,74.90
2022-11-27T18:34:39.745Z,75.25
2022-11-27T18:37:07.887Z,75.07
2022-11-27T18:39:36.593Z,75.82
2022-11-27T18:42:05.303Z,75.92
2022-11-27T18:44:37.270Z,76.45
2022-11-27T18:47:10.662Z,76.58
2022-11-27T18:49:39.389Z,77.46
2022-11-27T18:52:07.418Z,76.96
2022-11-27T18:54:36.533Z,77.27
2022-11-27T18:57:06.372Z,78.00
2022-11-27T18:59:34.967Z,77.46
2022-11-27T19:02:03.923Z,76.81
2022-11-27T19:04:31.282Z,77.04
2022-11-27T19:06:58.516Z,76.95
2022-11-27T19:09:26.290Z,76.80
2022-11-27T19:11:54.026Z,77.17
2022-11-27T19:14:21.305Z,77.34
2022-11-27T19:16:48.717Z,76.59
2022-11-27T19:19:53.475Z,76.97
2022-11-27T19:22:14.877Z,76.57
2022-11-27T19:24:42.634Z,76.56
2022-11-27T19:27:09.900Z,77.07
2022-11-27T19:29:37.146Z,76.66
2022-11-27T19:32:04.663Z,76.99
2022-11-27T19:34:31.820Z,76.64
2022-11-27T19:36:59.196Z,76.99
2022-11-27T19:39:27.419Z,76.85
2022-11-27T19:41:55.044Z,77.52
2022-11-27T19:44:23.661Z,77.94
2022-11-27T19:46:50.968Z,77.96
2022-11-27T19:49:19.640Z,77.73
2022-11-27T19:51:48.148Z,77.71
2022-11-27T19:54:17.063Z,77.21
2022-11-27T19:56:44.382Z,77.54
2022-11-27T19:59:13.058Z,77.59
2022-11-27T20:01:41.650Z,77.74
2022-11-27T20:04:12.155Z,78.03
2022-11-27T20:06:40.023Z,77.97
2022-11-27T20:09:07.994Z,78.66
2022-11-27T20:11:36.792Z,78.59
2022-11-27T20:14:05.777Z,77.72
2022-11-27T20:16:35.188Z,77.54
2022-11-27T20:19:05.940Z,78.24
2022-11-27T20:21:35.868Z,78.01
2022-11-27T20:24:04.254Z,78.25
2022-11-27T20:26:32.810Z,78.00
2022-11-27T20:29:00.576Z,78.06
2022-11-27T20:31:37.948Z,77.78
2022-11-27T20:34:06.880Z,77.18
2022-11-27T20:36:38.293Z,77.35
2022-11-27T20:39:05.540Z,77.18
2022-11-27T20:41:34.287Z,77.14
2022-11-27T20:44:02.524Z,77.09
2022-11-27T20:46:34.081Z,77.01
2022-11-27T20:49:01.712Z,77.22
2022-11-27T20:51:33.864Z,77.01
2022-11-27T20:54:09.363Z,76.82
2022-11-27T20:56:37.368Z,76.59
2022-11-27T20:59:07.005Z,77.14
2022-11-27T21:01:36.345Z,77.84
2022-11-27T21:04:10.164Z,77.20
2022-11-27T21:06:43.422Z,77.69
2022-11-27T21:09:14.094Z,77.98
2022-11-27T21:11:42.323Z,77.52
2022-11-27T21:14:12.342Z,77.34
2022-11-27T21:16:42.881Z,77.12
2022-11-27T21:19:27.583Z,76.93
2022-11-27T21:21:56.817Z,76.25
2022-11-27T21:24:28.040Z,76.04
2022-11-27T21:26:56.181Z,75.92
2022-11-27T21:29:25.912Z,75.91
2022-11-27T21:31:55.344Z,76.48
2022-11-27T21:34:23.870Z,75.50
2022-11-27T21:36:51.143Z,76.08
2022-11-27T21:39:21.794Z,75.93
2022-11-27T21:41:50.917Z,76.39
2022-11-27T21:44:20.021Z,76.52
2022-11-27T21:46:48.414Z,76.37
2022-11-27T21:49:18.452Z,75.70
2022-11-27T21:51:46.093Z,75.98
2022-11-27T21:54:15.017Z,75.85
2022-11-27T21:56:42.163Z,76.05
2022-11-27T21:59:12.746Z,76.91
2022-11-27T22:01:40.421Z,76.75
2022-11-27T22:04:07.760Z,76.85
2022-11-27T22:06:40.587Z,76.31
2022-11-27T22:09:11.986Z,76.28
2022-11-27T22:11:42.842Z,76.54
2022-11-27T22:14:10.168Z,76.88
2022-11-27T22:16:44.794Z,76.71
2022-11-27T22:19:14.404Z,77.08
2022-11-27T22:21:42.987Z,77.15
2022-11-27T22:24:16.736Z,76.46
2022-11-27T22:26:47.191Z,76.35
2022-11-27T22:29:14.293Z,76.05
2022-11-27T22:31:41.702Z,76.96
2022-11-27T22:34:08.808Z,76.25
2022-11-27T22:36:36.205Z,76.70
2022-11-27T22:39:07.408Z,77.12
2022-11-27T22:41:36.956Z,77.01
2022-11-27T22:44:09.741Z,77.07
2022-11-27T22:46:41.226Z,77.46
2022-11-27T22:49:11.199Z,77.70
2022-11-27T22:51:39.218Z,76.95
2022-11-27T22:54:09.967Z,77.42
2022-11-27T22:56:38.804Z,76.46
2022-11-27T22:59:31.148Z,76.23
2022-11-27T23:01:54.722Z,76.58
2022-11-27T23:04:22.219Z,76.79
2022-11-27T23:06:49.534Z,76.23
2022-11-27T23:09:18.965Z,76.00
2022-11-27T23:11:46.818Z,76.07
2022-11-27T23:14:14.168Z,75.57
2022-11-27T23:16:41.597Z,76.29
2022-11-27T23:19:09.501Z,76.13
2022-11-27T23:21:39.110Z,75.36
2022-11-27T23:24:08.925Z,75.48
2022-11-27T23:26:36.396Z,75.46
2022-11-27T23:29:03.945Z,75.05
2022-11-27T23:31:35.381Z,75.79
2022-11-27T23:34:07.588Z,76.24
2022-11-27T23:36:35.741Z,75.92
2022-11-27T23:39:06.176Z,76.07
2022-11-27T23:41:33.742Z,75.60
2022-11-27T23:44:01.692Z,75.46
2022-11-27T23:46:30.479Z,75.57
2022-11-27T23:48:59.821Z,76.12
2022-11-27T23:51:30.203Z,76.49
2022-11-27T23:53:57.883Z,75.68
2022-11-27T23:56:27.569Z,76.69
2022-11-27T23:58:56.214Z,76.35
